Sunday, May 29, 2016
03:47 UTC
  |  Log In   |  Register Free
Airport Search:

Orlando Sanford International Airport
(KSFB)

FAA data valid effective Mar 31 2016 - May 26 2016 (unless otherwise noted).

 
 
 
 
 
 
 
 
 
 
 
 
 
 
Current Aviation Weather for KSFB

Weather Summary


The most recent METAR observation for SFB was updated at: 12:53 UTC
METAR for KSFB is not available. Closest METAR is for KORL
KSFB  (most recent observation was updatred at 29:02 UTC)
290253Z AUTO 03004KT 10SM CLR 24/19 A3006 RMK AO2 SLP176 T02390194 53016

KORL  (14.8 nm NE)   (most recent observation was updated at 29:02 UTC)
290253Z AUTO 07006KT 10SM CLR 25/21 A3006 RMK AO2 SLP181 T02500206 53016

KDED  (17.6 nm SE)   (most recent observation was updated at 29:03 UTC)
290335Z AUTO 00000KT 22/20 A3007 RMK AO1

TAF for KSFB is not available.
KSFB
282328Z 2900/2924 05009KT P6SM VCSH FEW050 SCT100 FM290300 VRB03KT P6SM SCT250 FM291400 26005KT P6SM SCT030 FM292100 06009KT P6SM SCT060 BKN250

KMCO  (21.2 nm NE)   (most recent observation was updatred at 29:02 UTC)
AMD 290259Z 2903/2924 07004KT P6SM FEW050 SCT250 FM290400 00000KT P6SM SCT250 FM291400 26005KT P6SM SCT030 FM292100 06009KT P6SM SCT060 BKN250


KDAB  (25.9 nm SW)   (most recent observation was updatred at 28:23 UTC)
282328Z 2900/2924 02010KT P6SM FEW025 SCT250 FM290300 VRB03KT P6SM SCT250 FM291400 27007KT P6SM SCT030 FM291800 04009KT P6SM SCT040
GlobalAir.com is loading additional information.
 Current Weather at SFB
76.0 F° (24.4 C°)

Northeast winds at 5.8 mph
Pressure:
30.04 in
Humidity:
77%
Wind:
Northeast at 5.8 mph
Dew Point:
68.0 F° (20.0 C°)
Visibility:
10.00 mi
SFB NOAA Radar




Find All Airport Services Find A Hotel Find A Rental Car Find A Golf Course Find A Restaurant $100 Hamburger



Airport Weather Forecast for KSFB

Translated METAR for KSFB (0253 UTC)
METAR:
KSFB 290253Z AUTO 03004KT 10SM CLR 24/19 A3006 RMK AO2 SLP176 T02390194 53016
Conditions at:
KSFB (Orlando Sanford Intl, FL) observed 0253 UTC 28 May 2016
Temperature:
24°C (75.2°F)
Dewpoint:
19°C (66.2°F) [RH = 73.6]
Pressure:
30.06 inches Hg (1017.9 mb)
pressure at sea level is 176 in Hg
Winds:
from the NNE (030 degrees) at 4.6 mph (4 knots: 2.1 m/s)
Visibility:
10 mile(s)
Ceiling:
at least 12,000 feet AGL
Clouds:
Clear below 12,000 feet AGL
Remarks:
site is un-manned
site is automated and HAS a precipitation sensor

Translated TAF for KSFB (Orlando Sanford Intl, FL) (2328 UTC)
TAF text:
KSFB 282328Z 2900/2924 05009KT P6SM VCSH FEW050 SCT100
Forecast period:
Sunday May 29 2016 00:00 UTC - Sunday May 29 2016 24:00 UTC
Forecast type:
FROM: standard forecast or significant change
Winds:
from the NE (050 degrees) at 10.4 mph (9 knots: 4.6 m/s)
Visibility:
6 or more mile(s) (9.7+ km)
Ceiling:
at least 12,000 feet AGL
Clouds:
Few Clouds at 5,000 feet AGL
Scattered Clouds at 10,000 feet AGL
Weather:
Moderate In Vicinity Shower(s)
TAF text:
FM290300 VRB03KT P6SM SCT250
Forecast period:
Sunday May 29 2016 03:00 UTC - Sunday May 29 2016 14:00 UTC
Forecast type:
FROM: standard forecast or significant change
Winds:
variable wind direction at 3.5 mph (3 knots: 1.5 m/s)
Visibility:
6 or more mile(s) (9.7+ km)
Ceiling:
at least 12,000 feet AGL
Clouds:
Scattered Clouds at 25,000 feet AGL
Weather:
no significant weather observed at this time
TAF text:
FM291400 26005KT P6SM SCT030
Forecast period:
Sunday May 29 2016 14:00 UTC - Sunday May 29 2016 21:00 UTC
Forecast type:
FROM: standard forecast or significant change
Winds:
from the W (260 degrees) at 5.8 mph (5 knots: 2.6 m/s)
Visibility:
6 or more mile(s) (9.7+ km)
Ceiling:
at least 12,000 feet AGL
Clouds:
Scattered Clouds at 3,000 feet AGL
Weather:
no significant weather observed at this time
TAF text:
FM292100 06009KT P6SM SCT060 BKN250
Forecast period:
Sunday May 29 2016 21:00 UTC - Sunday May 29 2016 24:00 UTC
Forecast type:
FROM: standard forecast or significant change
Winds:
from the ENE (060 degrees) at 10.4 mph (9 knots: 4.6 m/s)
Visibility:
6 or more mile(s) (9.7+ km)
Ceiling:
25,000 feet AGL
Clouds:
Scattered Clouds at 6,000 feet AGL
Broken Cloud Cover at 25,000 feet AGL
Weather:
no significant weather observed at this time
FBO's on the Field
FBO Company Facility Photos Services Transportation Aviation Fuel Prices: Prices include tax
Catering Weather Repair Courtesy Rental Type 100LL JetA JetA+ MOGAS 8087
 
StarPort

StarPort logo
Currently rated 5 by 7 people
FS:
Last Updated: May-24
Login to update fuel prices
SS:
Contact StarPortMore FBO Information
 
Million Air Sanford

Currently rated 5 by 3 people
FS:Ascent
Last Updated: May-24
Login to update fuel prices
SS:
Contact Million Air SanfordMore FBO Information
 
Add another FBO Facility Photos Catering Weather Repair Courtesy Rental Type 100LL JetA JetA+ MOGAS 8087
Services Transportation Aviation Fuel Prices: Prices include tax


model-print
model-print
model-print
model-print